Time;durP1;ratioP1;P1;durP2;ratioP2;P2;SDS_P1;SDS_P2;PMS_P1;PMS_P2;Temp;Humidity;BMP_temperature;BMP_pressure;BME280_temperature;BME280_humidity;BME280_pressure;Samples;Min_cycle;Max_cycle;Signal;HPM_P1;HPM_P2
2023/05/11 00:02:08;;;;;;;28.77;14.38;;;;;;;;;;4962751;28;25158;-78
2023/05/11 00:04:34;;;;;;;25.73;13.57;;;;;;;;;;4956567;28;25129;-77
2023/05/11 00:07:00;;;;;;;31.73;15.35;;;;;;;;;;4958465;28;25145;-79
2023/05/11 00:09:26;;;;;;;29.27;13.98;;;;;;;;;;4957869;28;25065;-77
2023/05/11 00:11:52;;;;;;;27.83;13.90;;;;;;;;;;4960288;28;25057;-77
2023/05/11 00:14:18;;;;;;;31.77;15.05;;;;;;;;;;4962897;28;25114;-77
2023/05/11 00:16:44;;;;;;;28.08;14.63;;;;;;;;;;4969364;28;25079;-79
2023/05/11 00:19:10;;;;;;;28.33;14.88;;;;;;;;;;4972215;28;25085;-78
2023/05/11 00:21:36;;;;;;;30.02;15.73;;;;;;;;;;4977090;28;25129;-78
2023/05/11 00:24:02;;;;;;;31.23;14.65;;;;;;;;;;4959804;28;25081;-78
2023/05/11 00:26:28;;;;;;;30.92;15.02;;;;;;;;;;4953944;28;25098;-82
2023/05/11 00:28:54;;;;;;;31.10;15.15;;;;;;;;;;4961298;28;25074;-79
2023/05/11 00:31:20;;;;;;;32.83;16.13;;;;;;;;;;4953940;28;25039;-77
2023/05/11 00:33:46;;;;;;;30.40;15.00;;;;;;;;;;4950629;28;25084;-76
2023/05/11 00:36:12;;;;;;;27.42;14.27;;;;;;;;;;4954358;28;25140;-76
2023/05/11 00:38:41;;;;;;;32.83;15.65;;;;;;;;;;4959176;28;25068;-77
2023/05/11 00:41:08;;;;;;;28.45;15.30;;;;;;;;;;4960983;28;25115;-77
2023/05/11 00:43:34;;;;;;;41.72;18.33;;;;;;;;;;4961397;28;25053;-79
2023/05/11 00:46:02;;;;;;;33.05;15.25;;;;;;;;;;4958541;28;25051;-79
2023/05/11 00:48:28;;;;;;;32.78;15.75;;;;;;;;;;4960108;28;25057;-78
2023/05/11 00:50:54;;;;;;;31.88;16.48;;;;;;;;;;4956552;28;25075;-78
2023/05/11 00:53:20;;;;;;;28.95;15.48;;;;;;;;;;4955617;28;25154;-79
2023/05/11 00:55:46;;;;;;;35.70;17.48;;;;;;;;;;4961862;28;25082;-80
2023/05/11 00:58:12;;;;;;;36.65;17.42;;;;;;;;;;4961857;28;25060;-78
2023/05/11 01:00:38;;;;;;;39.90;17.73;;;;;;;;;;4969615;28;25137;-78
2023/05/11 01:03:06;;;;;;;37.47;17.92;;;;;;;;;;4959341;28;25134;-79
2023/05/11 01:05:35;;;;;;;36.63;17.42;;;;;;;;;;4961655;28;25077;-78
2023/05/11 01:08:05;;;;;;;37.58;17.45;;;;;;;;;;4955143;28;25122;-78
2023/05/11 01:10:38;;;;;;;40.30;19.08;;;;;;;;;;4954626;28;25092;-78
2023/05/11 01:13:18;;;;;;;44.53;18.70;;;;;;;;;;4957127;28;25074;-78
2023/05/11 01:15:50;;;;;;;35.58;17.30;;;;;;;;;;4953067;28;25128;-78
2023/05/11 01:18:19;;;;;;;38.13;17.85;;;;;;;;;;4948035;28;25077;-79
2023/05/11 01:20:46;;;;;;;34.13;17.65;;;;;;;;;;4972790;28;25052;-76
2023/05/11 01:23:42;;;;;;;37.60;18.65;;;;;;;;;;4981085;28;25068;-78
2023/05/11 01:26:10;;;;;;;44.67;19.65;;;;;;;;;;4974846;28;25056;-79
2023/05/11 01:28:46;;;;;;;40.47;18.23;;;;;;;;;;4963736;28;25138;-79
2023/05/11 01:31:13;;;;;;;41.78;18.83;;;;;;;;;;4976353;28;25119;-78
2023/05/11 01:33:43;;;;;;;40.15;18.98;;;;;;;;;;4962344;28;25077;-78
2023/05/11 01:36:10;;;;;;;43.50;19.67;;;;;;;;;;4965041;28;25078;-79
2023/05/11 01:38:44;;;;;;;41.50;20.88;;;;;;;;;;4958255;28;25095;-80
2023/05/11 01:41:15;;;;;;;42.60;19.75;;;;;;;;;;4965192;28;25180;-78
2023/05/11 01:43:43;;;;;;;41.70;19.00;;;;;;;;;;4960906;28;25096;-78
2023/05/11 01:46:10;;;;;;;40.42;20.35;;;;;;;;;;4962362;28;25063;-78
2023/05/11 01:48:38;;;;;;;45.42;20.23;;;;;;;;;;4959707;28;25074;-79
2023/05/11 01:51:04;;;;;;;45.63;19.95;;;;;;;;;;4965279;28;25119;-79
2023/05/11 01:53:32;;;;;;;38.80;19.38;;;;;;;;;;4956831;28;25086;-78
2023/05/11 01:55:59;;;;;;;45.30;20.92;;;;;;;;;;4971270;28;25064;-77
2023/05/11 01:58:27;;;;;;;49.15;20.42;;;;;;;;;;4961455;28;25062;-79
2023/05/11 02:00:54;;;;;;;48.58;19.63;;;;;;;;;;4978842;28;25063;-78
2023/05/11 02:03:21;;;;;;;41.70;20.33;;;;;;;;;;4962655;28;24969;-78
2023/05/11 02:05:48;;;;;;;39.28;19.08;;;;;;;;;;4961055;28;25110;-79
2023/05/11 02:08:14;;;;;;;44.67;21.08;;;;;;;;;;4976706;28;25077;-79
2023/05/11 02:10:42;;;;;;;44.72;21.08;;;;;;;;;;4959224;28;25144;-78
2023/05/11 02:13:09;;;;;;;45.20;21.25;;;;;;;;;;4958982;28;25074;-79
2023/05/11 02:15:37;;;;;;;47.35;20.73;;;;;;;;;;4963097;28;25191;-78
2023/05/11 02:18:04;;;;;;;51.63;22.13;;;;;;;;;;4966867;28;25087;-78
2023/05/11 02:20:30;;;;;;;55.05;23.52;;;;;;;;;;4969084;28;25086;-77
2023/05/11 02:22:57;;;;;;;56.00;22.95;;;;;;;;;;4977242;28;25055;-78
2023/05/11 02:25:23;;;;;;;56.83;22.98;;;;;;;;;;4963785;28;25107;-78
2023/05/11 02:27:50;;;;;;;54.40;23.17;;;;;;;;;;4963840;28;25071;-78
2023/05/11 02:30:16;;;;;;;55.58;22.95;;;;;;;;;;4958668;28;25148;-78
2023/05/11 02:32:47;;;;;;;58.05;20.17;;;;;;;;;;4964119;28;25095;-79
2023/05/11 02:35:16;;;;;;;47.33;21.27;;;;;;;;;;4968236;28;25060;-80
2023/05/11 02:37:44;;;;;;;53.17;23.40;;;;;;;;;;4967606;28;25086;-78
2023/05/11 02:40:15;;;;;;;43.45;21.33;;;;;;;;;;4984374;28;25076;-80
2023/05/11 02:42:42;;;;;;;48.00;21.85;;;;;;;;;;4987511;28;25069;-79
2023/05/11 02:45:10;;;;;;;47.22;20.92;;;;;;;;;;4979706;28;25063;-80
2023/05/11 02:47:42;;;;;;;45.67;21.65;;;;;;;;;;4968938;28;25144;-79
2023/05/11 02:50:09;;;;;;;46.40;20.93;;;;;;;;;;4962222;28;25077;-79
2023/05/11 02:52:38;;;;;;;47.95;20.10;;;;;;;;;;4975117;28;25096;-79
2023/05/11 02:55:05;;;;;;;54.25;20.90;;;;;;;;;;4981013;28;25061;-78
2023/05/11 02:57:31;;;;;;;52.28;22.45;;;;;;;;;;4977292;28;25065;-79
2023/05/11 02:59:57;;;;;;;47.25;20.52;;;;;;;;;;4968757;28;25071;-77
2023/05/11 03:02:23;;;;;;;51.75;22.08;;;;;;;;;;4965636;28;25074;-78
2023/05/11 03:04:49;;;;;;;44.72;21.17;;;;;;;;;;4962073;28;25045;-78
2023/05/11 03:07:15;;;;;;;49.70;21.13;;;;;;;;;;4974568;28;25117;-79
2023/05/11 03:09:41;;;;;;;51.65;21.08;;;;;;;;;;4974014;28;25056;-79
2023/05/11 03:12:07;;;;;;;45.58;21.20;;;;;;;;;;4977848;28;25054;-79
2023/05/11 03:14:35;;;;;;;45.58;21.10;;;;;;;;;;4960635;28;25053;-80
2023/05/11 03:17:02;;;;;;;48.88;20.98;;;;;;;;;;4971088;28;25132;-78
2023/05/11 03:19:28;;;;;;;52.80;21.65;;;;;;;;;;4962571;28;25064;-79
2023/05/11 03:21:55;;;;;;;46.50;21.25;;;;;;;;;;4966841;28;25064;-79
2023/05/11 03:24:21;;;;;;;51.65;21.98;;;;;;;;;;4959695;28;25070;-78
2023/05/11 03:26:47;;;;;;;47.97;21.90;;;;;;;;;;4960304;28;25080;-79
2023/05/11 03:29:14;;;;;;;51.55;21.52;;;;;;;;;;4962641;28;25070;-78
2023/05/11 03:31:40;;;;;;;52.92;22.15;;;;;;;;;;4959649;28;25081;-78
2023/05/11 03:34:07;;;;;;;51.47;21.70;;;;;;;;;;4956286;28;25125;-78
2023/05/11 03:36:33;;;;;;;54.47;21.83;;;;;;;;;;4957877;28;25074;-79
2023/05/11 03:39:01;;;;;;;54.00;21.20;;;;;;;;;;4961069;28;25065;-78
2023/05/11 03:41:27;;;;;;;49.42;21.27;;;;;;;;;;4957402;28;25071;-78
2023/05/11 03:43:55;;;;;;;53.38;20.83;;;;;;;;;;4964284;28;25053;-78
2023/05/11 03:46:22;;;;;;;49.25;20.10;;;;;;;;;;4977272;28;25070;-80
2023/05/11 03:48:48;;;;;;;47.88;19.40;;;;;;;;;;4969296;28;25078;-77
2023/05/11 03:51:17;;;;;;;56.95;22.00;;;;;;;;;;4964802;28;25161;-78
2023/05/11 03:53:43;;;;;;;49.78;21.95;;;;;;;;;;4988729;28;25128;-79
2023/05/11 03:56:09;;;;;;;52.30;21.27;;;;;;;;;;4961191;28;25133;-80
2023/05/11 03:58:39;;;;;;;47.80;20.98;;;;;;;;;;4966081;28;25091;-78
2023/05/11 04:01:06;;;;;;;50.75;20.38;;;;;;;;;;4962922;28;25064;-81
2023/05/11 04:03:32;;;;;;;56.20;21.45;;;;;;;;;;4960415;28;25053;-79
2023/05/11 04:05:58;;;;;;;45.22;20.00;;;;;;;;;;4966461;28;25082;-77
2023/05/11 04:08:24;;;;;;;52.17;21.42;;;;;;;;;;4958975;28;25094;-78
2023/05/11 04:10:50;;;;;;;55.00;21.88;;;;;;;;;;4964355;28;25146;-79
2023/05/11 04:13:16;;;;;;;54.47;21.00;;;;;;;;;;4970588;28;25082;-78
2023/05/11 04:15:42;;;;;;;60.65;24.13;;;;;;;;;;4964949;28;25055;-81
2023/05/11 04:18:08;;;;;;;55.05;22.25;;;;;;;;;;4966765;28;25081;-80
2023/05/11 04:20:34;;;;;;;48.90;19.88;;;;;;;;;;4958371;28;25082;-80
2023/05/11 04:23:00;;;;;;;52.38;20.77;;;;;;;;;;4967543;28;25068;-78
2023/05/11 04:25:26;;;;;;;55.53;21.25;;;;;;;;;;4958441;28;25075;-79
2023/05/11 04:27:52;;;;;;;48.40;20.13;;;;;;;;;;4964084;28;25142;-78
2023/05/11 04:30:20;;;;;;;44.30;19.77;;;;;;;;;;4963793;28;25070;-78
2023/05/11 04:32:46;;;;;;;57.20;22.90;;;;;;;;;;4961689;28;25046;-78
2023/05/11 04:35:12;;;;;;;54.85;21.63;;;;;;;;;;4958052;28;25069;-78
2023/05/11 04:37:38;;;;;;;54.83;21.00;;;;;;;;;;4961702;28;25105;-79
2023/05/11 04:40:04;;;;;;;43.55;20.02;;;;;;;;;;4962475;28;25107;-77
2023/05/11 04:42:30;;;;;;;53.70;22.05;;;;;;;;;;4956194;28;25055;-78
2023/05/11 04:44:56;;;;;;;43.63;20.15;;;;;;;;;;4959243;28;25070;-78
2023/05/11 04:47:22;;;;;;;54.17;21.58;;;;;;;;;;4967921;28;25101;-79
2023/05/11 04:49:49;;;;;;;56.45;22.00;;;;;;;;;;4956580;28;25072;-78
2023/05/11 04:52:15;;;;;;;55.70;21.55;;;;;;;;;;4957098;28;25070;-79
2023/05/11 04:54:41;;;;;;;52.42;21.67;;;;;;;;;;4971399;28;25091;-78
2023/05/11 04:57:07;;;;;;;49.60;22.65;;;;;;;;;;4961980;28;25093;-78
2023/05/11 04:59:33;;;;;;;65.15;22.75;;;;;;;;;;4970391;28;25089;-79
2023/05/11 05:01:59;;;;;;;53.60;21.85;;;;;;;;;;4969402;28;25109;-79
2023/05/11 05:04:25;;;;;;;47.47;21.25;;;;;;;;;;4973498;28;25063;-76
2023/05/11 05:06:51;;;;;;;48.58;21.15;;;;;;;;;;4974889;28;25077;-80
2023/05/11 05:09:17;;;;;;;47.88;21.10;;;;;;;;;;4964493;28;25042;-79
2023/05/11 05:11:44;;;;;;;48.80;22.30;;;;;;;;;;4966924;28;25065;-77
2023/05/11 05:14:10;;;;;;;49.53;20.50;;;;;;;;;;4965653;28;25067;-80
2023/05/11 05:16:37;;;;;;;53.53;23.20;;;;;;;;;;4960504;28;25096;-77
2023/05/11 05:19:04;;;;;;;52.22;23.10;;;;;;;;;;4961848;28;25085;-77
2023/05/11 05:21:31;;;;;;;49.20;21.15;;;;;;;;;;4961778;28;25061;-81
2023/05/11 05:23:57;;;;;;;45.03;22.20;;;;;;;;;;4963227;28;25090;-80
2023/05/11 05:26:23;;;;;;;46.33;21.77;;;;;;;;;;4958148;28;25074;-77
2023/05/11 05:28:49;;;;;;;53.80;22.38;;;;;;;;;;4960818;28;25066;-78
2023/05/11 05:31:15;;;;;;;48.45;21.75;;;;;;;;;;4955452;28;25075;-79
2023/05/11 05:33:41;;;;;;;48.42;21.60;;;;;;;;;;4958539;28;25057;-76
2023/05/11 05:36:07;;;;;;;51.65;21.67;;;;;;;;;;4965717;28;25080;-77
2023/05/11 05:38:33;;;;;;;47.63;21.25;;;;;;;;;;4959922;28;25069;-79
2023/05/11 05:41:00;;;;;;;47.22;22.50;;;;;;;;;;4959279;28;25098;-75
2023/05/11 05:43:26;;;;;;;53.20;20.38;;;;;;;;;;4962997;28;25107;-78
2023/05/11 05:45:52;;;;;;;42.92;20.80;;;;;;;;;;4961785;28;25170;-78
2023/05/11 05:48:18;;;;;;;49.97;22.00;;;;;;;;;;4961962;28;25096;-77
2023/05/11 05:50:44;;;;;;;47.47;21.27;;;;;;;;;;4975572;28;25052;-78
2023/05/11 05:53:10;;;;;;;46.30;19.88;;;;;;;;;;4969371;28;25137;-78
2023/05/11 05:55:37;;;;;;;53.35;21.23;;;;;;;;;;4963257;28;25137;-79
2023/05/11 05:58:03;;;;;;;48.83;20.80;;;;;;;;;;4969442;28;25056;-78
2023/05/11 06:00:30;;;;;;;40.85;21.13;;;;;;;;;;4973568;28;25047;-79
2023/05/11 06:02:55;;;;;;;47.42;22.20;;;;;;;;;;4959951;28;25122;-79
2023/05/11 06:05:21;;;;;;;40.03;19.00;;;;;;;;;;4968416;28;25088;-79
2023/05/11 06:07:47;;;;;;;48.03;20.83;;;;;;;;;;4973675;28;25096;-79
2023/05/11 06:10:14;;;;;;;45.05;22.17;;;;;;;;;;4955463;28;25069;-78
2023/05/11 06:12:40;;;;;;;46.78;21.02;;;;;;;;;;4966057;28;25156;-77
2023/05/11 06:15:06;;;;;;;45.50;20.65;;;;;;;;;;4957966;28;25071;-78
2023/05/11 06:17:32;;;;;;;44.30;20.33;;;;;;;;;;4967144;28;25076;-78
2023/05/11 06:19:58;;;;;;;44.53;19.92;;;;;;;;;;4961002;28;25054;-78
2023/05/11 06:22:24;;;;;;;42.83;20.63;;;;;;;;;;4965171;28;25063;-81
2023/05/11 06:24:50;;;;;;;47.42;21.45;;;;;;;;;;4961007;28;25072;-79
2023/05/11 06:27:16;;;;;;;44.80;19.38;;;;;;;;;;4971379;28;25147;-78
2023/05/11 06:29:42;;;;;;;40.28;19.92;;;;;;;;;;4955040;28;25067;-78
2023/05/11 06:32:08;;;;;;;43.83;19.33;;;;;;;;;;4955099;28;25102;-77
2023/05/11 06:34:34;;;;;;;45.90;18.80;;;;;;;;;;4955316;28;25022;-79
2023/05/11 06:37:00;;;;;;;43.50;18.30;;;;;;;;;;4959284;28;25134;-77
2023/05/11 06:39:26;;;;;;;41.45;17.73;;;;;;;;;;4954849;28;25076;-76
2023/05/11 06:41:52;;;;;;;45.60;18.33;;;;;;;;;;4961502;28;25077;-77
2023/05/11 06:44:18;;;;;;;47.35;18.17;;;;;;;;;;4963685;28;25102;-78
2023/05/11 06:46:44;;;;;;;36.42;15.70;;;;;;;;;;4966758;28;25078;-79
2023/05/11 06:49:10;;;;;;;44.70;18.17;;;;;;;;;;4960616;28;25081;-80
2023/05/11 06:51:37;;;;;;;41.60;17.70;;;;;;;;;;4965139;28;25044;-77
2023/05/11 06:54:03;;;;;;;43.05;18.80;;;;;;;;;;4956298;28;25051;-80
2023/05/11 06:56:30;;;;;;;51.67;18.08;;;;;;;;;;4958089;28;25072;-78
2023/05/11 06:58:56;;;;;;;40.40;16.75;;;;;;;;;;4961644;28;25079;-80
2023/05/11 07:01:22;;;;;;;42.38;17.55;;;;;;;;;;4952677;28;25055;-79
2023/05/11 07:03:48;;;;;;;47.65;20.40;;;;;;;;;;4951676;28;25067;-77
2023/05/11 07:06:14;;;;;;;40.80;17.67;;;;;;;;;;4958382;28;25159;-75
2023/05/11 07:08:40;;;;;;;40.50;19.48;;;;;;;;;;4955688;28;25089;-77
2023/05/11 07:11:06;;;;;;;43.10;19.98;;;;;;;;;;4951059;28;25090;-78
2023/05/11 07:13:32;;;;;;;44.80;20.48;;;;;;;;;;4952477;28;25086;-78
2023/05/11 07:15:58;;;;;;;50.45;21.23;;;;;;;;;;4952561;28;25102;-80
2023/05/11 07:18:24;;;;;;;47.95;19.05;;;;;;;;;;4953960;28;25057;-78
2023/05/11 07:20:50;;;;;;;42.28;20.40;;;;;;;;;;4951971;28;25044;-77
2023/05/11 07:23:16;;;;;;;58.40;21.98;;;;;;;;;;4955693;28;25112;-78
2023/05/11 07:25:42;;;;;;;41.58;19.67;;;;;;;;;;4963333;28;25106;-77
2023/05/11 07:28:08;;;;;;;39.88;21.15;;;;;;;;;;4959570;28;25075;-75
2023/05/11 07:30:34;;;;;;;43.28;20.75;;;;;;;;;;4973985;28;25058;-76
2023/05/11 07:33:01;;;;;;;38.10;21.30;;;;;;;;;;4966828;28;25057;-77
2023/05/11 07:35:27;;;;;;;39.35;21.83;;;;;;;;;;4968360;28;25052;-76
2023/05/11 07:37:53;;;;;;;38.25;19.33;;;;;;;;;;4960204;28;25125;-78
2023/05/11 07:40:19;;;;;;;39.53;19.20;;;;;;;;;;4955649;28;25095;-77
2023/05/11 07:42:45;;;;;;;36.58;18.95;;;;;;;;;;4956021;28;25085;-78
2023/05/11 07:45:11;;;;;;;42.40;20.90;;;;;;;;;;4955492;28;25077;-78
2023/05/11 07:47:37;;;;;;;34.50;17.58;;;;;;;;;;4958893;28;25088;-80
2023/05/11 07:50:03;;;;;;;41.08;19.13;;;;;;;;;;4952513;28;25069;-78
2023/05/11 07:52:29;;;;;;;36.67;16.80;;;;;;;;;;4951830;28;25071;-78
2023/05/11 07:54:55;;;;;;;38.75;19.40;;;;;;;;;;4953595;28;25135;-78
2023/05/11 07:57:21;;;;;;;38.47;19.90;;;;;;;;;;4952776;28;25065;-79
2023/05/11 07:59:47;;;;;;;50.38;21.98;;;;;;;;;;4964429;28;25069;-77
2023/05/11 08:02:13;;;;;;;46.13;23.20;;;;;;;;;;4958198;28;25060;-78
2023/05/11 08:04:39;;;;;;;55.90;22.45;;;;;;;;;;4960772;28;25080;-80
2023/05/11 08:07:05;;;;;;;54.22;23.50;;;;;;;;;;4966466;28;25088;-80
2023/05/11 08:09:31;;;;;;;53.67;23.45;;;;;;;;;;4969067;28;25078;-77
2023/05/11 08:12:00;;;;;;;56.20;24.35;;;;;;;;;;4954124;28;25061;-82
2023/05/11 08:14:26;;;;;;;63.42;23.92;;;;;;;;;;4963089;28;25083;-77
2023/05/11 08:16:54;;;;;;;54.85;25.02;;;;;;;;;;4960963;28;25083;-78
2023/05/11 08:19:20;;;;;;;55.70;23.05;;;;;;;;;;4965276;28;25075;-80
2023/05/11 08:21:46;;;;;;;49.67;23.30;;;;;;;;;;4983732;28;25053;-81
2023/05/11 08:24:12;;;;;;;54.15;23.77;;;;;;;;;;4977692;28;25088;-79
2023/05/11 08:26:38;;;;;;;51.60;23.65;;;;;;;;;;4971922;28;25068;-77
2023/05/11 08:29:04;;;;;;;72.68;27.25;;;;;;;;;;4967164;28;25106;-78
2023/05/11 08:31:30;;;;;;;44.00;21.92;;;;;;;;;;4962424;28;25089;-77
2023/05/11 08:33:56;;;;;;;53.97;21.92;;;;;;;;;;4976620;28;25134;-81
2023/05/11 08:36:22;;;;;;;53.08;22.73;;;;;;;;;;4977755;28;25077;-78
2023/05/11 08:38:48;;;;;;;50.00;24.92;;;;;;;;;;4973598;28;25065;-80
2023/05/11 08:41:14;;;;;;;49.03;24.10;;;;;;;;;;4972039;28;25068;-78
2023/05/11 08:43:40;;;;;;;52.05;24.33;;;;;;;;;;4959996;28;25093;-79
2023/05/11 08:46:08;;;;;;;56.38;23.90;;;;;;;;;;4955425;28;25110;-76
2023/05/11 08:48:34;;;;;;;55.38;24.60;;;;;;;;;;4955650;28;25050;-78
2023/05/11 08:51:01;;;;;;;51.72;23.75;;;;;;;;;;4954292;28;25064;-77
2023/05/11 08:53:27;;;;;;;44.28;22.33;;;;;;;;;;4978383;28;25128;-79
2023/05/11 08:55:54;;;;;;;57.08;23.55;;;;;;;;;;4959891;28;25079;-78
2023/05/11 08:58:21;;;;;;;53.17;21.70;;;;;;;;;;4961983;28;25101;-79
2023/05/11 09:00:50;;;;;;;49.85;22.98;;;;;;;;;;4954983;28;25094;-77
2023/05/11 09:03:18;;;;;;;49.95;24.05;;;;;;;;;;4952952;28;25136;-76
2023/05/11 09:05:45;;;;;;;48.80;23.30;;;;;;;;;;4952921;28;25059;-77
2023/05/11 09:08:12;;;;;;;52.35;24.63;;;;;;;;;;4952928;28;25051;-76
2023/05/11 09:10:38;;;;;;;47.58;24.02;;;;;;;;;;4957589;28;25064;-78
2023/05/11 09:13:05;;;;;;;37.65;22.40;;;;;;;;;;4954266;28;25047;-79
2023/05/11 09:15:31;;;;;;;51.28;21.45;;;;;;;;;;4963666;28;25148;-77
2023/05/11 09:17:57;;;;;;;45.10;22.40;;;;;;;;;;4967220;28;25075;-76
2023/05/11 09:20:27;;;;;;;48.60;23.48;;;;;;;;;;4960005;28;25072;-77
2023/05/11 09:22:54;;;;;;;59.15;23.00;;;;;;;;;;4960505;28;25064;-77
2023/05/11 09:25:21;;;;;;;50.35;23.95;;;;;;;;;;4957552;28;25072;-77
2023/05/11 09:27:47;;;;;;;44.10;21.77;;;;;;;;;;4966878;28;25075;-78
2023/05/11 09:30:14;;;;;;;51.65;24.42;;;;;;;;;;4961055;28;25170;-77
2023/05/11 09:32:54;;;;;;;51.55;24.02;;;;;;;;;;4962993;28;25098;-76
2023/05/11 09:35:21;;;;;;;51.85;23.42;;;;;;;;;;4956274;28;25080;-78
2023/05/11 09:38:06;;;;;;;48.03;22.45;;;;;;;;;;4957691;28;25101;-77
2023/05/11 09:40:33;;;;;;;46.22;22.67;;;;;;;;;;4981322;28;25100;-77
2023/05/11 09:43:00;;;;;;;45.30;23.60;;;;;;;;;;4959206;28;25070;-79
2023/05/11 09:45:38;;;;;;;51.47;23.25;;;;;;;;;;4956166;28;25114;-76
2023/05/11 09:48:06;;;;;;;41.97;21.63;;;;;;;;;;4953689;28;25146;-76
2023/05/11 09:50:33;;;;;;;63.65;25.20;;;;;;;;;;4954211;28;25068;-77
2023/05/11 09:52:59;;;;;;;59.08;24.45;;;;;;;;;;4961562;28;25076;-76
2023/05/11 09:55:25;;;;;;;53.58;23.90;;;;;;;;;;4959914;28;25073;-76
2023/05/11 09:57:56;;;;;;;51.75;23.38;;;;;;;;;;4955689;28;25101;-77
2023/05/11 10:00:24;;;;;;;49.85;22.85;;;;;;;;;;4954767;28;25054;-76
2023/05/11 10:03:03;;;;;;;47.85;22.63;;;;;;;;;;4956137;28;25079;-76
2023/05/11 10:05:30;;;;;;;58.63;25.40;;;;;;;;;;4957976;28;25100;-78
2023/05/11 10:08:00;;;;;;;55.85;23.23;;;;;;;;;;4955583;28;25096;-77
2023/05/11 10:10:28;;;;;;;49.83;22.63;;;;;;;;;;4951294;28;25150;-77
2023/05/11 10:12:55;;;;;;;49.03;24.25;;;;;;;;;;4953616;28;25090;-77
2023/05/11 10:15:26;;;;;;;50.47;23.33;;;;;;;;;;4954407;28;25116;-77
2023/05/11 10:17:57;;;;;;;55.55;22.60;;;;;;;;;;4961098;28;25056;-77
2023/05/11 10:20:26;;;;;;;51.58;24.58;;;;;;;;;;4959063;28;25072;-77
2023/05/11 10:22:53;;;;;;;38.78;19.95;;;;;;;;;;4967851;28;25089;-78
2023/05/11 10:25:23;;;;;;;47.28;21.75;;;;;;;;;;4965984;28;25071;-79
2023/05/11 10:27:50;;;;;;;51.20;24.05;;;;;;;;;;4957002;28;25059;-76
2023/05/11 10:30:16;;;;;;;46.90;21.02;;;;;;;;;;4964210;28;25073;-77
2023/05/11 10:32:43;;;;;;;50.08;22.83;;;;;;;;;;4953397;28;25070;-77
2023/05/11 10:35:09;;;;;;;54.75;23.48;;;;;;;;;;4953169;28;25146;-77
2023/05/11 10:37:35;;;;;;;55.67;23.83;;;;;;;;;;4965067;28;25061;-77
2023/05/11 10:40:03;;;;;;;52.28;25.00;;;;;;;;;;4975449;28;25065;-73
2023/05/11 10:42:36;;;;;;;37.90;20.90;;;;;;;;;;4977304;28;25078;-78
2023/05/11 10:45:05;;;;;;;48.63;22.63;;;;;;;;;;4973502;28;25079;-76
2023/05/11 10:47:31;;;;;;;47.30;22.45;;;;;;;;;;4961962;28;25066;-75
2023/05/11 10:50:20;;;;;;;42.58;20.13;;;;;;;;;;4975221;28;25086;-76
2023/05/11 10:52:53;;;;;;;43.20;20.08;;;;;;;;;;4954499;28;25066;-76
2023/05/11 10:55:34;;;;;;;39.45;19.25;;;;;;;;;;4965823;28;25054;-76
2023/05/11 10:58:09;;;;;;;45.85;19.38;;;;;;;;;;4957674;28;25083;-75
2023/05/11 11:00:42;;;;;;;42.65;19.30;;;;;;;;;;4961054;28;25102;-76
2023/05/11 11:03:09;;;;;;;35.90;18.67;;;;;;;;;;4967954;28;25084;-74
2023/05/11 11:05:38;;;;;;;39.88;19.35;;;;;;;;;;4968794;28;25060;-74
2023/05/11 11:08:07;;;;;;;38.80;18.05;;;;;;;;;;4962362;28;25066;-75
2023/05/11 11:10:34;;;;;;;35.35;17.83;;;;;;;;;;4960477;28;25063;-75
2023/05/11 11:13:01;;;;;;;30.50;17.98;;;;;;;;;;4963035;28;25076;-73
2023/05/11 11:15:47;;;;;;;29.58;15.88;;;;;;;;;;4974038;28;25169;-74
2023/05/11 11:18:25;;;;;;;30.63;15.70;;;;;;;;;;4961151;28;25086;-76
2023/05/11 11:20:52;;;;;;;35.72;16.88;;;;;;;;;;4980431;28;25054;-75
2023/05/11 11:23:37;;;;;;;26.95;15.50;;;;;;;;;;4971381;28;25102;-75
2023/05/11 11:26:03;;;;;;;31.50;16.08;;;;;;;;;;4974384;28;25077;-76
2023/05/11 11:28:49;;;;;;;26.60;14.38;;;;;;;;;;4966282;28;25077;-76
2023/05/11 11:31:26;;;;;;;28.73;13.15;;;;;;;;;;4961558;28;25103;-77
2023/05/11 11:33:55;;;;;;;23.08;13.05;;;;;;;;;;4958780;28;25132;-76
2023/05/11 11:36:40;;;;;;;28.75;13.65;;;;;;;;;;4967872;28;25102;-76
2023/05/11 11:39:07;;;;;;;28.10;14.48;;;;;;;;;;4960738;28;25074;-77
2023/05/11 11:41:34;;;;;;;26.13;13.73;;;;;;;;;;4958584;28;25064;-75
2023/05/11 11:44:00;;;;;;;27.52;14.55;;;;;;;;;;4957649;28;25135;-78
2023/05/11 11:46:28;;;;;;;31.20;14.48;;;;;;;;;;4955912;28;25044;-77
2023/05/11 11:49:07;;;;;;;20.80;10.48;;;;;;;;;;4959611;28;25108;-78
2023/05/11 11:51:34;;;;;;;15.45;8.68;;;;;;;;;;4956864;28;25083;-76
2023/05/11 11:54:00;;;;;;;10.68;6.28;;;;;;;;;;4973773;28;25067;-75
2023/05/11 11:56:29;;;;;;;17.27;7.00;;;;;;;;;;4958222;28;25138;-75
2023/05/11 11:58:55;;;;;;;11.40;6.90;;;;;;;;;;4977204;28;25060;-76
2023/05/11 12:01:22;;;;;;;15.00;7.68;;;;;;;;;;4957864;28;25075;-76
2023/05/11 12:04:03;;;;;;;12.48;7.40;;;;;;;;;;4961151;28;25076;-77
2023/05/11 12:06:36;;;;;;;16.27;8.48;;;;;;;;;;4958089;28;25065;-76
2023/05/11 12:09:03;;;;;;;12.95;6.82;;;;;;;;;;4954082;28;25079;-74
2023/05/11 12:11:29;;;;;;;12.25;7.38;;;;;;;;;;4958215;28;25095;-76
2023/05/11 12:13:56;;;;;;;14.80;7.88;;;;;;;;;;4977472;28;25058;-75
2023/05/11 12:16:22;;;;;;;14.73;7.57;;;;;;;;;;4964972;28;25058;-76
2023/05/11 12:18:52;;;;;;;12.55;7.30;;;;;;;;;;4963191;28;25103;-76
2023/05/11 12:21:22;;;;;;;16.40;8.43;;;;;;;;;;4955781;28;25066;-77
2023/05/11 12:23:53;;;;;;;14.80;8.30;;;;;;;;;;4961130;28;25081;-75
2023/05/11 12:26:20;;;;;;;20.38;11.02;;;;;;;;;;4964784;28;25102;-78
2023/05/11 12:28:49;;;;;;;14.93;8.82;;;;;;;;;;4948585;28;25083;-76
2023/05/11 12:31:16;;;;;;;25.08;14.10;;;;;;;;;;4953871;28;25064;-74
2023/05/11 12:33:48;;;;;;;22.88;13.85;;;;;;;;;;4951223;28;25131;-76
2023/05/11 12:36:15;;;;;;;16.75;10.90;;;;;;;;;;4952100;28;25149;-76
2023/05/11 12:38:48;;;;;;;9.40;6.95;;;;;;;;;;4948211;28;25141;-77
2023/05/11 12:41:21;;;;;;;18.02;9.25;;;;;;;;;;4948240;28;25190;-78
2023/05/11 12:43:47;;;;;;;12.35;7.28;;;;;;;;;;4948805;28;25059;-75
2023/05/11 12:46:13;;;;;;;10.63;6.88;;;;;;;;;;4948484;28;25101;-76
2023/05/11 12:48:39;;;;;;;8.60;6.25;;;;;;;;;;4950125;28;25106;-79
2023/05/11 12:51:05;;;;;;;10.20;6.85;;;;;;;;;;4951158;28;25056;-75
2023/05/11 12:53:35;;;;;;;12.70;7.95;;;;;;;;;;4949379;28;25068;-76
2023/05/11 12:56:01;;;;;;;12.02;6.60;;;;;;;;;;4948387;28;25120;-75
2023/05/11 12:58:34;;;;;;;9.63;5.35;;;;;;;;;;4950165;28;25098;-77
2023/05/11 13:01:00;;;;;;;10.25;5.70;;;;;;;;;;4959021;28;25087;-75
2023/05/11 13:03:28;;;;;;;14.82;6.50;;;;;;;;;;4951674;28;25108;-77
2023/05/11 13:06:06;;;;;;;13.48;7.75;;;;;;;;;;4953058;28;25079;-76
2023/05/11 13:08:33;;;;;;;6.57;4.63;;;;;;;;;;4955098;28;25071;-77
2023/05/11 13:11:17;;;;;;;9.10;5.13;;;;;;;;;;4960372;28;25059;-74
2023/05/11 13:13:43;;;;;;;6.10;4.10;;;;;;;;;;4947047;28;25067;-76
2023/05/11 13:16:10;;;;;;;6.63;4.28;;;;;;;;;;4958403;28;25068;-76
2023/05/11 13:18:36;;;;;;;6.78;4.20;;;;;;;;;;4949475;28;25090;-76
2023/05/11 13:21:06;;;;;;;5.97;3.75;;;;;;;;;;4950757;28;25085;-77
2023/05/11 13:23:32;;;;;;;7.88;3.33;;;;;;;;;;4953976;28;25049;-76
2023/05/11 13:25:58;;;;;;;7.78;4.35;;;;;;;;;;4950146;28;25057;-76
2023/05/11 13:28:24;;;;;;;7.53;4.75;;;;;;;;;;4952239;28;25064;-76
2023/05/11 13:30:51;;;;;;;8.32;4.28;;;;;;;;;;4955633;28;25132;-75
2023/05/11 13:33:17;;;;;;;4.82;3.55;;;;;;;;;;4951219;28;25069;-76
2023/05/11 13:35:43;;;;;;;6.15;3.40;;;;;;;;;;4950742;28;25169;-73
2023/05/11 13:38:10;;;;;;;5.90;3.55;;;;;;;;;;4952863;28;25080;-74
2023/05/11 13:40:36;;;;;;;5.05;3.00;;;;;;;;;;4956956;28;25051;-75
2023/05/11 13:43:02;;;;;;;5.63;2.88;;;;;;;;;;4970877;28;25108;-76
2023/05/11 13:45:28;;;;;;;3.95;2.72;;;;;;;;;;4952872;28;25056;-75
2023/05/11 13:47:55;;;;;;;3.60;2.55;;;;;;;;;;4956951;28;25059;-75
2023/05/11 13:50:25;;;;;;;6.82;3.13;;;;;;;;;;4956288;28;25097;-75
2023/05/11 13:52:52;;;;;;;3.75;2.72;;;;;;;;;;4950758;28;25061;-75
2023/05/11 13:55:18;;;;;;;3.80;2.75;;;;;;;;;;4952320;28;25075;-75
2023/05/11 13:57:44;;;;;;;4.28;3.10;;;;;;;;;;4953215;28;25111;-78
2023/05/11 14:00:10;;;;;;;4.68;2.78;;;;;;;;;;4957191;28;25071;-75
2023/05/11 14:02:36;;;;;;;2.80;2.53;;;;;;;;;;4960801;28;25053;-77
2023/05/11 14:05:02;;;;;;;4.70;3.05;;;;;;;;;;4963536;28;25145;-70
2023/05/11 14:07:28;;;;;;;3.33;2.45;;;;;;;;;;4969956;28;25067;-75
2023/05/11 14:09:54;;;;;;;5.07;2.55;;;;;;;;;;4964968;28;25066;-76
2023/05/11 14:12:20;;;;;;;7.30;3.30;;;;;;;;;;4961142;28;25147;-75
2023/05/11 14:14:46;;;;;;;7.50;4.50;;;;;;;;;;4970849;28;25079;-73
2023/05/11 14:17:12;;;;;;;7.20;4.90;;;;;;;;;;4965258;28;25085;-75
2023/05/11 14:19:38;;;;;;;8.18;4.47;;;;;;;;;;4974648;28;25057;-75
2023/05/11 14:22:04;;;;;;;9.77;4.95;;;;;;;;;;4975908;28;25079;-76
2023/05/11 14:24:30;;;;;;;7.07;3.60;;;;;;;;;;4971973;28;25147;-76